sensor_id;sensor_type;location;lat;lon;timestamp;P1;durP1;ratioP1;P2;durP2;ratioP2
61200;SDS011;47065;52.898;6.992;2023-06-26T00:00:20;11.25;;;10.25;;
61200;SDS011;47065;52.898;6.992;2023-06-26T00:02:45;17.52;;;11.48;;
61200;SDS011;47065;52.898;6.992;2023-06-26T00:05:11;12.07;;;10.65;;
61200;SDS011;47065;52.898;6.992;2023-06-26T00:07:38;11.77;;;10.60;;
61200;SDS011;47065;52.898;6.992;2023-06-26T00:10:04;11.80;;;10.63;;
61200;SDS011;47065;52.898;6.992;2023-06-26T00:12:30;13.10;;;11.82;;
61200;SDS011;47065;52.898;6.992;2023-06-26T00:14:57;13.15;;;11.55;;
61200;SDS011;47065;52.898;6.992;2023-06-26T00:17:23;12.60;;;11.27;;
61200;SDS011;47065;52.898;6.992;2023-06-26T00:19:50;11.77;;;10.57;;
61200;SDS011;47065;52.898;6.992;2023-06-26T00:22:16;13.13;;;11.77;;
61200;SDS011;47065;52.898;6.992;2023-06-26T00:24:42;14.10;;;12.60;;
61200;SDS011;47065;52.898;6.992;2023-06-26T00:27:10;12.95;;;11.65;;
61200;SDS011;47065;52.898;6.992;2023-06-26T00:29:35;13.13;;;11.82;;
61200;SDS011;47065;52.898;6.992;2023-06-26T00:32:03;12.77;;;11.48;;
61200;SDS011;47065;52.898;6.992;2023-06-26T00:34:29;12.10;;;10.85;;
61200;SDS011;47065;52.898;6.992;2023-06-26T00:36:55;12.23;;;11.13;;
61200;SDS011;47065;52.898;6.992;2023-06-26T00:39:21;12.65;;;11.02;;
61200;SDS011;47065;52.898;6.992;2023-06-26T00:41:46;12.95;;;11.65;;
61200;SDS011;47065;52.898;6.992;2023-06-26T00:44:12;13.88;;;12.48;;
61200;SDS011;47065;52.898;6.992;2023-06-26T00:46:38;13.27;;;12.05;;
61200;SDS011;47065;52.898;6.992;2023-06-26T00:49:04;14.98;;;12.35;;
61200;SDS011;47065;52.898;6.992;2023-06-26T00:51:30;14.88;;;11.93;;
61200;SDS011;47065;52.898;6.992;2023-06-26T00:53:56;13.88;;;12.43;;
61200;SDS011;47065;52.898;6.992;2023-06-26T00:56:22;13.00;;;11.70;;
61200;SDS011;47065;52.898;6.992;2023-06-26T00:58:48;12.68;;;11.20;;
61200;SDS011;47065;52.898;6.992;2023-06-26T01:01:14;13.45;;;11.32;;
61200;SDS011;47065;52.898;6.992;2023-06-26T01:03:41;12.95;;;11.32;;
61200;SDS011;47065;52.898;6.992;2023-06-26T01:06:07;11.98;;;10.88;;
61200;SDS011;47065;52.898;6.992;2023-06-26T01:08:36;13.23;;;11.90;;
61200;SDS011;47065;52.898;6.992;2023-06-26T01:11:03;12.35;;;11.15;;
61200;SDS011;47065;52.898;6.992;2023-06-26T01:13:29;12.18;;;10.98;;
61200;SDS011;47065;52.898;6.992;2023-06-26T01:15:56;12.88;;;11.25;;
61200;SDS011;47065;52.898;6.992;2023-06-26T01:18:23;12.52;;;11.23;;
61200;SDS011;47065;52.898;6.992;2023-06-26T01:20:50;15.07;;;11.40;;
61200;SDS011;47065;52.898;6.992;2023-06-26T01:25:56;14.75;;;11.73;;
61200;SDS011;47065;52.898;6.992;2023-06-26T01:28:31;12.75;;;11.45;;
61200;SDS011;47065;52.898;6.992;2023-06-26T01:30:58;13.32;;;11.93;;
61200;SDS011;47065;52.898;6.992;2023-06-26T01:33:25;12.85;;;11.55;;
61200;SDS011;47065;52.898;6.992;2023-06-26T01:35:51;15.13;;;13.60;;
61200;SDS011;47065;52.898;6.992;2023-06-26T01:38:20;13.52;;;12.23;;
61200;SDS011;47065;52.898;6.992;2023-06-26T01:40:51;13.30;;;12.00;;
61200;SDS011;47065;52.898;6.992;2023-06-26T01:46:09;13.85;;;12.55;;
61200;SDS011;47065;52.898;6.992;2023-06-26T01:49:24;12.95;;;11.75;;
61200;SDS011;47065;52.898;6.992;2023-06-26T01:51:50;13.30;;;12.00;;
61200;SDS011;47065;52.898;6.992;2023-06-26T01:54:23;13.20;;;11.98;;
61200;SDS011;47065;52.898;6.992;2023-06-26T01:56:51;15.48;;;11.85;;
61200;SDS011;47065;52.898;6.992;2023-06-26T01:59:19;12.85;;;11.55;;
61200;SDS011;47065;52.898;6.992;2023-06-26T02:01:47;14.32;;;12.98;;
61200;SDS011;47065;52.898;6.992;2023-06-26T02:04:13;14.88;;;12.77;;
61200;SDS011;47065;52.898;6.992;2023-06-26T02:06:38;13.73;;;12.43;;
61200;SDS011;47065;52.898;6.992;2023-06-26T02:09:04;13.98;;;12.57;;
61200;SDS011;47065;52.898;6.992;2023-06-26T02:11:30;15.38;;;13.70;;
61200;SDS011;47065;52.898;6.992;2023-06-26T02:13:55;13.98;;;12.68;;
61200;SDS011;47065;52.898;6.992;2023-06-26T02:16:21;14.27;;;12.82;;
61200;SDS011;47065;52.898;6.992;2023-06-26T02:18:48;13.80;;;12.40;;
61200;SDS011;47065;52.898;6.992;2023-06-26T02:21:13;13.82;;;12.48;;
61200;SDS011;47065;52.898;6.992;2023-06-26T02:23:39;13.07;;;11.73;;
61200;SDS011;47065;52.898;6.992;2023-06-26T02:26:05;14.52;;;13.02;;
61200;SDS011;47065;52.898;6.992;2023-06-26T02:28:31;15.48;;;13.32;;
61200;SDS011;47065;52.898;6.992;2023-06-26T02:30:59;13.57;;;12.25;;
61200;SDS011;47065;52.898;6.992;2023-06-26T02:33:24;15.23;;;12.65;;
61200;SDS011;47065;52.898;6.992;2023-06-26T02:35:50;15.20;;;12.70;;
61200;SDS011;47065;52.898;6.992;2023-06-26T02:38:16;14.95;;;13.48;;
61200;SDS011;47065;52.898;6.992;2023-06-26T02:40:41;12.93;;;11.73;;
61200;SDS011;47065;52.898;6.992;2023-06-26T02:43:07;15.70;;;12.85;;
61200;SDS011;47065;52.898;6.992;2023-06-26T02:45:33;16.15;;;13.55;;
61200;SDS011;47065;52.898;6.992;2023-06-26T02:47:58;14.60;;;13.20;;
61200;SDS011;47065;52.898;6.992;2023-06-26T02:50:24;16.83;;;14.60;;
61200;SDS011;47065;52.898;6.992;2023-06-26T02:52:49;15.80;;;14.23;;
61200;SDS011;47065;52.898;6.992;2023-06-26T02:55:17;16.02;;;14.43;;
61200;SDS011;47065;52.898;6.992;2023-06-26T02:57:44;14.60;;;13.13;;
61200;SDS011;47065;52.898;6.992;2023-06-26T03:00:10;15.60;;;13.77;;
61200;SDS011;47065;52.898;6.992;2023-06-26T03:02:36;14.07;;;12.68;;
61200;SDS011;47065;52.898;6.992;2023-06-26T03:05:02;14.60;;;13.00;;
61200;SDS011;47065;52.898;6.992;2023-06-26T03:07:29;14.82;;;13.32;;
61200;SDS011;47065;52.898;6.992;2023-06-26T03:09:54;15.70;;;13.52;;
61200;SDS011;47065;52.898;6.992;2023-06-26T03:12:20;15.68;;;14.18;;
61200;SDS011;47065;52.898;6.992;2023-06-26T03:14:46;14.93;;;12.77;;
61200;SDS011;47065;52.898;6.992;2023-06-26T03:17:12;14.10;;;12.60;;
61200;SDS011;47065;52.898;6.992;2023-06-26T03:19:37;15.15;;;13.57;;
61200;SDS011;47065;52.898;6.992;2023-06-26T03:22:03;15.85;;;14.35;;
61200;SDS011;47065;52.898;6.992;2023-06-26T03:24:29;15.52;;;13.55;;
61200;SDS011;47065;52.898;6.992;2023-06-26T03:26:54;14.40;;;12.57;;
61200;SDS011;47065;52.898;6.992;2023-06-26T03:29:20;15.00;;;13.38;;
61200;SDS011;47065;52.898;6.992;2023-06-26T03:31:46;15.20;;;13.25;;
61200;SDS011;47065;52.898;6.992;2023-06-26T03:34:12;14.85;;;13.35;;
61200;SDS011;47065;52.898;6.992;2023-06-26T03:36:37;14.57;;;13.07;;
61200;SDS011;47065;52.898;6.992;2023-06-26T03:39:03;17.92;;;13.90;;
61200;SDS011;47065;52.898;6.992;2023-06-26T03:41:29;14.27;;;12.75;;
61200;SDS011;47065;52.898;6.992;2023-06-26T03:43:55;16.67;;;13.68;;
61200;SDS011;47065;52.898;6.992;2023-06-26T03:46:21;14.10;;;12.48;;
61200;SDS011;47065;52.898;6.992;2023-06-26T03:48:47;14.32;;;12.93;;
61200;SDS011;47065;52.898;6.992;2023-06-26T03:51:13;15.30;;;13.75;;
61200;SDS011;47065;52.898;6.992;2023-06-26T03:53:39;15.63;;;14.05;;
61200;SDS011;47065;52.898;6.992;2023-06-26T03:56:05;14.48;;;12.80;;
61200;SDS011;47065;52.898;6.992;2023-06-26T03:58:30;15.75;;;14.10;;
61200;SDS011;47065;52.898;6.992;2023-06-26T04:00:56;15.90;;;13.73;;
61200;SDS011;47065;52.898;6.992;2023-06-26T04:03:23;16.13;;;14.40;;
61200;SDS011;47065;52.898;6.992;2023-06-26T04:05:49;14.75;;;13.25;;
61200;SDS011;47065;52.898;6.992;2023-06-26T04:08:14;14.38;;;13.00;;
61200;SDS011;47065;52.898;6.992;2023-06-26T04:10:40;15.18;;;13.70;;
61200;SDS011;47065;52.898;6.992;2023-06-26T04:13:06;17.75;;;13.88;;
61200;SDS011;47065;52.898;6.992;2023-06-26T04:15:31;13.68;;;12.30;;
61200;SDS011;47065;52.898;6.992;2023-06-26T04:17:57;14.10;;;12.65;;
61200;SDS011;47065;52.898;6.992;2023-06-26T04:20:23;13.60;;;12.30;;
61200;SDS011;47065;52.898;6.992;2023-06-26T04:22:48;12.55;;;11.27;;
61200;SDS011;47065;52.898;6.992;2023-06-26T04:25:14;11.77;;;10.60;;
61200;SDS011;47065;52.898;6.992;2023-06-26T04:27:40;14.00;;;11.38;;
61200;SDS011;47065;52.898;6.992;2023-06-26T04:30:06;13.57;;;12.07;;
61200;SDS011;47065;52.898;6.992;2023-06-26T04:32:32;13.32;;;11.93;;
61200;SDS011;47065;52.898;6.992;2023-06-26T04:34:58;12.52;;;10.50;;
61200;SDS011;47065;52.898;6.992;2023-06-26T04:37:24;12.93;;;10.95;;
61200;SDS011;47065;52.898;6.992;2023-06-26T04:39:50;12.55;;;11.00;;
61200;SDS011;47065;52.898;6.992;2023-06-26T04:42:16;14.10;;;11.45;;
61200;SDS011;47065;52.898;6.992;2023-06-26T04:44:42;13.35;;;9.95;;
61200;SDS011;47065;52.898;6.992;2023-06-26T04:47:08;12.15;;;10.93;;
61200;SDS011;47065;52.898;6.992;2023-06-26T04:49:34;11.52;;;10.32;;
61200;SDS011;47065;52.898;6.992;2023-06-26T04:51:59;12.50;;;11.18;;
61200;SDS011;47065;52.898;6.992;2023-06-26T04:54:25;12.40;;;10.23;;
61200;SDS011;47065;52.898;6.992;2023-06-26T04:56:53;12.35;;;10.88;;
61200;SDS011;47065;52.898;6.992;2023-06-26T04:59:18;11.10;;;9.50;;
61200;SDS011;47065;52.898;6.992;2023-06-26T05:01:44;12.95;;;10.68;;
61200;SDS011;47065;52.898;6.992;2023-06-26T05:04:13;14.07;;;10.63;;
61200;SDS011;47065;52.898;6.992;2023-06-26T05:06:39;14.48;;;11.85;;
61200;SDS011;47065;52.898;6.992;2023-06-26T05:09:04;14.05;;;10.93;;
61200;SDS011;47065;52.898;6.992;2023-06-26T05:11:30;11.38;;;10.02;;
61200;SDS011;47065;52.898;6.992;2023-06-26T05:13:55;12.63;;;10.63;;
61200;SDS011;47065;52.898;6.992;2023-06-26T05:16:21;10.10;;;8.63;;
61200;SDS011;47065;52.898;6.992;2023-06-26T05:18:47;11.35;;;10.13;;
61200;SDS011;47065;52.898;6.992;2023-06-26T05:21:12;13.10;;;8.68;;
61200;SDS011;47065;52.898;6.992;2023-06-26T05:23:38;16.58;;;9.60;;
61200;SDS011;47065;52.898;6.992;2023-06-26T05:26:04;11.05;;;9.45;;
61200;SDS011;47065;52.898;6.992;2023-06-26T05:28:30;10.45;;;9.20;;
61200;SDS011;47065;52.898;6.992;2023-06-26T05:30:59;14.05;;;8.45;;
61200;SDS011;47065;52.898;6.992;2023-06-26T05:33:26;15.95;;;8.30;;
61200;SDS011;47065;52.898;6.992;2023-06-26T05:35:52;10.77;;;7.82;;
61200;SDS011;47065;52.898;6.992;2023-06-26T05:38:18;10.73;;;7.93;;
61200;SDS011;47065;52.898;6.992;2023-06-26T05:40:45;11.63;;;7.95;;
61200;SDS011;47065;52.898;6.992;2023-06-26T05:43:11;18.00;;;8.43;;
61200;SDS011;47065;52.898;6.992;2023-06-26T05:45:36;14.43;;;8.20;;
61200;SDS011;47065;52.898;6.992;2023-06-26T05:48:02;11.25;;;6.82;;
61200;SDS011;47065;52.898;6.992;2023-06-26T05:50:28;14.30;;;7.63;;
61200;SDS011;47065;52.898;6.992;2023-06-26T05:52:54;17.73;;;8.85;;
61200;SDS011;47065;52.898;6.992;2023-06-26T05:55:20;14.82;;;7.72;;
61200;SDS011;47065;52.898;6.992;2023-06-26T05:57:47;14.82;;;7.43;;
61200;SDS011;47065;52.898;6.992;2023-06-26T06:00:13;11.18;;;7.15;;
61200;SDS011;47065;52.898;6.992;2023-06-26T06:02:39;12.88;;;7.13;;
61200;SDS011;47065;52.898;6.992;2023-06-26T06:05:06;11.02;;;6.65;;
61200;SDS011;47065;52.898;6.992;2023-06-26T06:07:32;14.40;;;6.93;;
61200;SDS011;47065;52.898;6.992;2023-06-26T06:09:59;10.27;;;6.65;;
61200;SDS011;47065;52.898;6.992;2023-06-26T06:12:25;12.65;;;6.72;;
61200;SDS011;47065;52.898;6.992;2023-06-26T06:14:51;14.32;;;7.40;;
61200;SDS011;47065;52.898;6.992;2023-06-26T06:17:18;12.43;;;7.03;;
61200;SDS011;47065;52.898;6.992;2023-06-26T06:19:45;11.82;;;6.55;;
61200;SDS011;47065;52.898;6.992;2023-06-26T06:22:10;10.98;;;6.22;;
61200;SDS011;47065;52.898;6.992;2023-06-26T06:24:36;12.15;;;6.45;;
61200;SDS011;47065;52.898;6.992;2023-06-26T06:27:02;10.80;;;6.60;;
61200;SDS011;47065;52.898;6.992;2023-06-26T06:29:27;11.70;;;6.32;;
61200;SDS011;47065;52.898;6.992;2023-06-26T06:31:53;9.75;;;5.90;;
61200;SDS011;47065;52.898;6.992;2023-06-26T06:34:19;9.38;;;6.53;;
61200;SDS011;47065;52.898;6.992;2023-06-26T06:36:45;12.80;;;6.15;;
61200;SDS011;47065;52.898;6.992;2023-06-26T06:39:11;11.13;;;6.03;;
61200;SDS011;47065;52.898;6.992;2023-06-26T06:41:36;10.93;;;5.93;;
61200;SDS011;47065;52.898;6.992;2023-06-26T06:44:03;10.68;;;5.72;;
61200;SDS011;47065;52.898;6.992;2023-06-26T06:46:29;8.88;;;4.63;;
61200;SDS011;47065;52.898;6.992;2023-06-26T06:48:55;7.57;;;5.22;;
61200;SDS011;47065;52.898;6.992;2023-06-26T06:51:21;13.40;;;5.22;;
61200;SDS011;47065;52.898;6.992;2023-06-26T06:53:47;9.48;;;3.65;;
61200;SDS011;47065;52.898;6.992;2023-06-26T06:56:13;12.50;;;4.47;;
61200;SDS011;47065;52.898;6.992;2023-06-26T06:58:39;7.68;;;4.20;;
61200;SDS011;47065;52.898;6.992;2023-06-26T07:01:07;6.70;;;4.50;;
61200;SDS011;47065;52.898;6.992;2023-06-26T07:03:34;7.68;;;3.95;;
61200;SDS011;47065;52.898;6.992;2023-06-26T07:06:00;8.65;;;3.22;;
61200;SDS011;47065;52.898;6.992;2023-06-26T07:08:26;9.02;;;3.70;;
61200;SDS011;47065;52.898;6.992;2023-06-26T07:10:52;7.70;;;3.60;;
61200;SDS011;47065;52.898;6.992;2023-06-26T07:13:17;8.07;;;2.78;;
61200;SDS011;47065;52.898;6.992;2023-06-26T07:15:43;6.13;;;2.70;;
61200;SDS011;47065;52.898;6.992;2023-06-26T07:18:12;4.93;;;3.05;;
61200;SDS011;47065;52.898;6.992;2023-06-26T07:20:38;8.38;;;3.00;;
61200;SDS011;47065;52.898;6.992;2023-06-26T07:23:04;9.13;;;2.83;;
61200;SDS011;47065;52.898;6.992;2023-06-26T07:25:29;6.32;;;2.03;;
61200;SDS011;47065;52.898;6.992;2023-06-26T07:27:55;6.68;;;2.72;;
61200;SDS011;47065;52.898;6.992;2023-06-26T07:30:21;9.30;;;2.90;;
61200;SDS011;47065;52.898;6.992;2023-06-26T07:32:46;7.63;;;3.38;;
61200;SDS011;47065;52.898;6.992;2023-06-26T07:35:12;6.35;;;2.63;;
61200;SDS011;47065;52.898;6.992;2023-06-26T07:37:38;7.72;;;2.40;;
61200;SDS011;47065;52.898;6.992;2023-06-26T07:40:03;6.43;;;2.05;;
61200;SDS011;47065;52.898;6.992;2023-06-26T07:42:29;8.45;;;2.10;;
61200;SDS011;47065;52.898;6.992;2023-06-26T07:44:55;5.50;;;1.60;;
61200;SDS011;47065;52.898;6.992;2023-06-26T07:47:21;7.68;;;1.88;;
61200;SDS011;47065;52.898;6.992;2023-06-26T07:49:46;4.68;;;1.45;;
61200;SDS011;47065;52.898;6.992;2023-06-26T07:52:12;7.18;;;1.67;;
61200;SDS011;47065;52.898;6.992;2023-06-26T07:54:40;4.25;;;2.05;;
61200;SDS011;47065;52.898;6.992;2023-06-26T07:57:05;5.15;;;2.30;;
61200;SDS011;47065;52.898;6.992;2023-06-26T07:59:32;2.53;;;1.35;;
61200;SDS011;47065;52.898;6.992;2023-06-26T08:01:58;4.15;;;1.70;;
61200;SDS011;47065;52.898;6.992;2023-06-26T08:04:25;9.38;;;2.40;;
61200;SDS011;47065;52.898;6.992;2023-06-26T08:06:52;4.55;;;1.80;;
61200;SDS011;47065;52.898;6.992;2023-06-26T08:09:20;8.23;;;1.85;;
61200;SDS011;47065;52.898;6.992;2023-06-26T08:11:47;4.22;;;2.05;;
61200;SDS011;47065;52.898;6.992;2023-06-26T08:14:13;3.00;;;1.42;;
61200;SDS011;47065;52.898;6.992;2023-06-26T08:16:39;6.88;;;2.28;;
61200;SDS011;47065;52.898;6.992;2023-06-26T08:19:05;4.20;;;2.25;;
61200;SDS011;47065;52.898;6.992;2023-06-26T08:21:31;4.07;;;1.65;;
61200;SDS011;47065;52.898;6.992;2023-06-26T08:23:57;4.22;;;1.15;;
61200;SDS011;47065;52.898;6.992;2023-06-26T08:26:23;2.90;;;1.30;;
61200;SDS011;47065;52.898;6.992;2023-06-26T08:28:48;4.97;;;1.65;;
61200;SDS011;47065;52.898;6.992;2023-06-26T08:31:14;7.88;;;1.70;;
61200;SDS011;47065;52.898;6.992;2023-06-26T08:33:44;5.72;;;1.63;;
61200;SDS011;47065;52.898;6.992;2023-06-26T08:36:09;4.75;;;1.30;;
61200;SDS011;47065;52.898;6.992;2023-06-26T08:38:35;5.82;;;1.67;;
61200;SDS011;47065;52.898;6.992;2023-06-26T08:41:01;3.17;;;1.40;;
61200;SDS011;47065;52.898;6.992;2023-06-26T08:43:27;4.20;;;1.60;;
61200;SDS011;47065;52.898;6.992;2023-06-26T08:45:53;4.13;;;1.48;;
61200;SDS011;47065;52.898;6.992;2023-06-26T08:48:20;4.40;;;1.20;;
61200;SDS011;47065;52.898;6.992;2023-06-26T08:50:49;4.32;;;1.38;;
61200;SDS011;47065;52.898;6.992;2023-06-26T08:56:02;6.07;;;1.23;;
61200;SDS011;47065;52.898;6.992;2023-06-26T08:58:28;3.53;;;1.33;;
61200;SDS011;47065;52.898;6.992;2023-06-26T09:00:55;5.90;;;1.23;;
61200;SDS011;47065;52.898;6.992;2023-06-26T09:03:22;3.20;;;1.50;;
61200;SDS011;47065;52.898;6.992;2023-06-26T09:05:50;6.53;;;2.40;;
61200;SDS011;47065;52.898;6.992;2023-06-26T09:08:15;3.08;;;1.38;;
61200;SDS011;47065;52.898;6.992;2023-06-26T09:10:41;4.45;;;1.48;;
61200;SDS011;47065;52.898;6.992;2023-06-26T09:13:06;2.20;;;1.33;;
61200;SDS011;47065;52.898;6.992;2023-06-26T09:15:39;2.58;;;1.10;;
61200;SDS011;47065;52.898;6.992;2023-06-26T09:18:07;3.25;;;1.58;;
61200;SDS011;47065;52.898;6.992;2023-06-26T09:20:33;5.40;;;1.60;;
61200;SDS011;47065;52.898;6.992;2023-06-26T09:22:59;3.05;;;1.15;;
61200;SDS011;47065;52.898;6.992;2023-06-26T09:25:26;2.10;;;1.20;;
61200;SDS011;47065;52.898;6.992;2023-06-26T09:27:53;3.60;;;1.27;;
61200;SDS011;47065;52.898;6.992;2023-06-26T09:30:19;3.67;;;1.30;;
61200;SDS011;47065;52.898;6.992;2023-06-26T09:32:45;3.92;;;1.63;;
61200;SDS011;47065;52.898;6.992;2023-06-26T09:35:11;2.28;;;1.50;;
61200;SDS011;47065;52.898;6.992;2023-06-26T09:37:37;3.00;;;1.20;;
61200;SDS011;47065;52.898;6.992;2023-06-26T09:40:03;1.73;;;1.58;;
61200;SDS011;47065;52.898;6.992;2023-06-26T09:42:30;3.63;;;1.30;;
61200;SDS011;47065;52.898;6.992;2023-06-26T09:44:55;2.75;;;1.38;;
61200;SDS011;47065;52.898;6.992;2023-06-26T09:47:21;2.65;;;1.98;;
61200;SDS011;47065;52.898;6.992;2023-06-26T09:49:47;4.22;;;2.25;;
61200;SDS011;47065;52.898;6.992;2023-06-26T09:52:14;3.78;;;1.70;;
61200;SDS011;47065;52.898;6.992;2023-06-26T09:54:44;1.52;;;1.40;;
61200;SDS011;47065;52.898;6.992;2023-06-26T09:57:17;5.45;;;2.17;;
61200;SDS011;47065;52.898;6.992;2023-06-26T09:59:44;4.78;;;1.55;;
61200;SDS011;47065;52.898;6.992;2023-06-26T10:02:12;2.70;;;1.55;;
61200;SDS011;47065;52.898;6.992;2023-06-26T10:04:38;5.32;;;2.03;;
61200;SDS011;47065;52.898;6.992;2023-06-26T10:07:11;1.92;;;1.70;;
61200;SDS011;47065;52.898;6.992;2023-06-26T10:09:38;6.95;;;1.98;;
61200;SDS011;47065;52.898;6.992;2023-06-26T10:12:22;5.22;;;1.52;;
61200;SDS011;47065;52.898;6.992;2023-06-26T10:14:52;2.08;;;1.75;;
61200;SDS011;47065;52.898;6.992;2023-06-26T10:17:19;2.72;;;1.90;;
61200;SDS011;47065;52.898;6.992;2023-06-26T10:19:48;2.13;;;1.90;;
61200;SDS011;47065;52.898;6.992;2023-06-26T10:22:16;5.55;;;2.20;;
61200;SDS011;47065;52.898;6.992;2023-06-26T10:24:45;2.70;;;1.88;;
61200;SDS011;47065;52.898;6.992;2023-06-26T10:27:19;4.10;;;1.77;;
61200;SDS011;47065;52.898;6.992;2023-06-26T10:29:47;3.83;;;1.92;;
61200;SDS011;47065;52.898;6.992;2023-06-26T10:32:17;4.43;;;1.45;;
61200;SDS011;47065;52.898;6.992;2023-06-26T10:34:44;2.85;;;1.75;;
61200;SDS011;47065;52.898;6.992;2023-06-26T10:37:10;2.75;;;1.58;;
61200;SDS011;47065;52.898;6.992;2023-06-26T10:39:50;2.38;;;1.30;;
61200;SDS011;47065;52.898;6.992;2023-06-26T10:42:19;4.35;;;1.58;;
61200;SDS011;47065;52.898;6.992;2023-06-26T10:45:14;4.85;;;1.60;;
61200;SDS011;47065;52.898;6.992;2023-06-26T10:47:41;4.20;;;1.70;;
61200;SDS011;47065;52.898;6.992;2023-06-26T10:50:26;2.30;;;1.50;;
61200;SDS011;47065;52.898;6.992;2023-06-26T10:55:56;4.40;;;1.40;;
61200;SDS011;47065;52.898;6.992;2023-06-26T11:06:28;2.67;;;1.60;;
61200;SDS011;47065;52.898;6.992;2023-06-26T11:09:00;3.80;;;2.00;;
61200;SDS011;47065;52.898;6.992;2023-06-26T11:14:17;5.95;;;1.70;;
61200;SDS011;47065;52.898;6.992;2023-06-26T11:16:44;3.50;;;1.20;;
61200;SDS011;47065;52.898;6.992;2023-06-26T11:19:10;3.83;;;1.42;;
61200;SDS011;47065;52.898;6.992;2023-06-26T11:21:39;3.10;;;1.88;;
61200;SDS011;47065;52.898;6.992;2023-06-26T11:24:08;4.18;;;1.95;;
61200;SDS011;47065;52.898;6.992;2023-06-26T11:26:41;2.83;;;1.52;;
61200;SDS011;47065;52.898;6.992;2023-06-26T11:29:08;3.10;;;1.80;;
61200;SDS011;47065;52.898;6.992;2023-06-26T11:31:35;3.30;;;1.80;;
61200;SDS011;47065;52.898;6.992;2023-06-26T11:34:03;5.03;;;2.20;;
61200;SDS011;47065;52.898;6.992;2023-06-26T11:36:35;1.45;;;1.35;;
61200;SDS011;47065;52.898;6.992;2023-06-26T11:39:03;3.88;;;1.20;;
61200;SDS011;47065;52.898;6.992;2023-06-26T11:41:33;3.97;;;1.23;;
61200;SDS011;47065;52.898;6.992;2023-06-26T11:44:03;3.47;;;1.40;;
61200;SDS011;47065;52.898;6.992;2023-06-26T11:46:30;4.53;;;1.60;;
61200;SDS011;47065;52.898;6.992;2023-06-26T11:48:56;5.05;;;1.20;;
61200;SDS011;47065;52.898;6.992;2023-06-26T11:51:22;4.68;;;1.00;;
61200;SDS011;47065;52.898;6.992;2023-06-26T11:53:48;2.00;;;1.10;;
61200;SDS011;47065;52.898;6.992;2023-06-26T11:56:15;1.67;;;0.80;;
61200;SDS011;47065;52.898;6.992;2023-06-26T12:04:08;5.88;;;1.27;;
61200;SDS011;47065;52.898;6.992;2023-06-26T12:06:35;15.00;;;1.65;;
61200;SDS011;47065;52.898;6.992;2023-06-26T12:09:10;3.95;;;1.08;;
61200;SDS011;47065;52.898;6.992;2023-06-26T12:14:05;1.30;;;1.17;;
61200;SDS011;47065;52.898;6.992;2023-06-26T12:16:31;3.53;;;1.02;;
61200;SDS011;47065;52.898;6.992;2023-06-26T12:19:02;2.35;;;1.23;;
61200;SDS011;47065;52.898;6.992;2023-06-26T12:24:07;4.13;;;1.90;;
61200;SDS011;47065;52.898;6.992;2023-06-26T12:26:34;1.83;;;0.90;;
61200;SDS011;47065;52.898;6.992;2023-06-26T12:29:07;1.83;;;0.98;;
61200;SDS011;47065;52.898;6.992;2023-06-26T12:31:34;3.13;;;0.90;;
61200;SDS011;47065;52.898;6.992;2023-06-26T12:34:08;2.03;;;0.70;;
61200;SDS011;47065;52.898;6.992;2023-06-26T12:36:40;3.53;;;0.95;;
61200;SDS011;47065;52.898;6.992;2023-06-26T12:39:08;1.13;;;0.80;;
61200;SDS011;47065;52.898;6.992;2023-06-26T12:41:43;1.38;;;0.80;;
61200;SDS011;47065;52.898;6.992;2023-06-26T12:46:46;4.05;;;1.10;;
61200;SDS011;47065;52.898;6.992;2023-06-26T12:49:13;2.28;;;0.82;;
61200;SDS011;47065;52.898;6.992;2023-06-26T12:51:39;3.55;;;1.27;;
61200;SDS011;47065;52.898;6.992;2023-06-26T12:54:05;1.80;;;0.98;;
61200;SDS011;47065;52.898;6.992;2023-06-26T12:56:31;4.97;;;0.68;;
61200;SDS011;47065;52.898;6.992;2023-06-26T12:58:56;6.65;;;1.42;;
61200;SDS011;47065;52.898;6.992;2023-06-26T13:01:22;0.90;;;0.65;;
61200;SDS011;47065;52.898;6.992;2023-06-26T13:03:49;2.97;;;1.50;;
61200;SDS011;47065;52.898;6.992;2023-06-26T13:06:16;3.88;;;0.80;;
61200;SDS011;47065;52.898;6.992;2023-06-26T13:08:42;3.05;;;1.00;;
61200;SDS011;47065;52.898;6.992;2023-06-26T13:11:08;2.67;;;0.90;;
61200;SDS011;47065;52.898;6.992;2023-06-26T13:13:34;3.70;;;1.00;;
61200;SDS011;47065;52.898;6.992;2023-06-26T13:16:00;2.05;;;0.80;;
61200;SDS011;47065;52.898;6.992;2023-06-26T13:18:25;3.38;;;1.15;;
61200;SDS011;47065;52.898;6.992;2023-06-26T13:20:51;2.13;;;0.65;;
61200;SDS011;47065;52.898;6.992;2023-06-26T13:23:17;4.22;;;1.10;;
61200;SDS011;47065;52.898;6.992;2023-06-26T13:25:44;4.75;;;0.70;;
61200;SDS011;47065;52.898;6.992;2023-06-26T13:28:10;3.22;;;1.13;;
61200;SDS011;47065;52.898;6.992;2023-06-26T13:30:36;3.38;;;0.65;;
61200;SDS011;47065;52.898;6.992;2023-06-26T13:33:01;2.15;;;0.57;;
61200;SDS011;47065;52.898;6.992;2023-06-26T13:35:28;0.60;;;0.50;;
61200;SDS011;47065;52.898;6.992;2023-06-26T13:37:53;6.60;;;1.23;;
61200;SDS011;47065;52.898;6.992;2023-06-26T13:40:19;1.30;;;0.75;;
61200;SDS011;47065;52.898;6.992;2023-06-26T13:42:45;4.43;;;0.85;;
61200;SDS011;47065;52.898;6.992;2023-06-26T13:45:10;2.78;;;1.10;;
61200;SDS011;47065;52.898;6.992;2023-06-26T13:47:37;5.70;;;1.23;;
61200;SDS011;47065;52.898;6.992;2023-06-26T13:50:06;6.10;;;1.30;;
61200;SDS011;47065;52.898;6.992;2023-06-26T13:52:35;5.18;;;1.60;;
61200;SDS011;47065;52.898;6.992;2023-06-26T13:55:01;4.07;;;1.15;;
61200;SDS011;47065;52.898;6.992;2023-06-26T13:57:29;4.60;;;1.40;;
61200;SDS011;47065;52.898;6.992;2023-06-26T13:59:55;2.72;;;1.48;;
61200;SDS011;47065;52.898;6.992;2023-06-26T14:02:21;8.02;;;1.88;;
61200;SDS011;47065;52.898;6.992;2023-06-26T14:04:47;3.55;;;1.95;;
61200;SDS011;47065;52.898;6.992;2023-06-26T14:07:13;6.82;;;1.30;;
61200;SDS011;47065;52.898;6.992;2023-06-26T14:09:39;3.72;;;1.50;;
61200;SDS011;47065;52.898;6.992;2023-06-26T14:12:05;6.85;;;1.40;;
61200;SDS011;47065;52.898;6.992;2023-06-26T14:14:32;4.20;;;0.88;;
61200;SDS011;47065;52.898;6.992;2023-06-26T14:16:58;5.18;;;1.35;;
61200;SDS011;47065;52.898;6.992;2023-06-26T14:19:24;4.90;;;1.00;;
61200;SDS011;47065;52.898;6.992;2023-06-26T14:21:51;3.45;;;0.98;;
61200;SDS011;47065;52.898;6.992;2023-06-26T14:24:17;4.68;;;1.25;;
61200;SDS011;47065;52.898;6.992;2023-06-26T14:26:43;4.70;;;1.30;;
61200;SDS011;47065;52.898;6.992;2023-06-26T14:29:08;7.43;;;1.52;;
61200;SDS011;47065;52.898;6.992;2023-06-26T14:31:34;6.28;;;1.70;;
61200;SDS011;47065;52.898;6.992;2023-06-26T14:34:00;2.95;;;1.30;;
61200;SDS011;47065;52.898;6.992;2023-06-26T14:36:27;2.60;;;1.05;;
61200;SDS011;47065;52.898;6.992;2023-06-26T14:38:56;1.17;;;0.82;;
61200;SDS011;47065;52.898;6.992;2023-06-26T14:41:21;2.05;;;0.80;;
61200;SDS011;47065;52.898;6.992;2023-06-26T14:43:47;3.95;;;1.00;;
61200;SDS011;47065;52.898;6.992;2023-06-26T14:46:13;3.70;;;0.90;;
61200;SDS011;47065;52.898;6.992;2023-06-26T14:48:39;2.80;;;1.17;;
61200;SDS011;47065;52.898;6.992;2023-06-26T14:51:04;6.50;;;1.30;;
61200;SDS011;47065;52.898;6.992;2023-06-26T14:53:30;2.78;;;1.02;;
61200;SDS011;47065;52.898;6.992;2023-06-26T14:55:56;2.45;;;1.20;;
61200;SDS011;47065;52.898;6.992;2023-06-26T14:58:21;3.22;;;1.08;;
61200;SDS011;47065;52.898;6.992;2023-06-26T15:00:47;1.80;;;1.38;;
61200;SDS011;47065;52.898;6.992;2023-06-26T15:03:13;5.38;;;1.05;;
61200;SDS011;47065;52.898;6.992;2023-06-26T15:05:39;5.05;;;1.48;;
61200;SDS011;47065;52.898;6.992;2023-06-26T15:08:04;2.90;;;0.85;;